createdAt,value
2018-09-06T00:00:21.250Z,18.60
2018-09-06T00:02:49.799Z,18.60
2018-09-06T00:05:18.334Z,18.50
2018-09-06T00:07:46.867Z,18.30
2018-09-06T00:10:15.411Z,18.30
2018-09-06T00:12:43.915Z,18.20
2018-09-06T00:15:12.456Z,18.20
2018-09-06T00:17:40.948Z,18.10
2018-09-06T00:20:09.590Z,18.00
2018-09-06T00:22:38.127Z,18.00
2018-09-06T00:25:06.716Z,17.90
2018-09-06T00:27:35.236Z,17.80
2018-09-06T00:30:03.855Z,17.80
2018-09-06T00:32:32.355Z,17.70
2018-09-06T00:35:00.886Z,17.70
2018-09-06T00:37:29.375Z,17.70
2018-09-06T00:39:57.870Z,17.60
2018-09-06T00:42:26.358Z,17.60
2018-09-06T00:44:54.963Z,17.50
2018-09-06T00:47:23.490Z,17.50
2018-09-06T00:49:52.051Z,17.60
2018-09-06T00:52:20.539Z,17.60
2018-09-06T00:54:49.067Z,17.60
2018-09-06T00:57:17.576Z,17.60
2018-09-06T00:59:46.146Z,17.60
2018-09-06T01:02:14.641Z,17.60
2018-09-06T01:04:43.128Z,17.60
2018-09-06T01:07:11.637Z,17.60
2018-09-06T01:09:40.185Z,17.70
2018-09-06T01:12:08.734Z,17.70
2018-09-06T01:14:37.213Z,17.80
2018-09-06T01:17:05.760Z,17.90
2018-09-06T01:19:34.311Z,17.90
2018-09-06T01:22:02.824Z,17.90
2018-09-06T01:24:31.335Z,18.00
2018-09-06T01:26:59.894Z,18.00
2018-09-06T01:29:28.382Z,18.10
2018-09-06T01:31:56.966Z,18.10
2018-09-06T01:34:25.470Z,18.20
2018-09-06T01:36:54.029Z,18.30
2018-09-06T01:39:22.557Z,18.30
2018-09-06T01:41:51.094Z,18.30
2018-09-06T01:44:19.582Z,18.40
2018-09-06T01:46:48.117Z,18.40
2018-09-06T01:49:16.645Z,18.40
2018-09-06T01:51:45.217Z,18.40
2018-09-06T01:54:13.706Z,18.40
2018-09-06T01:56:42.185Z,18.40
2018-09-06T01:59:13.854Z,18.40
2018-09-06T02:01:42.823Z,18.40
2018-09-06T02:04:11.470Z,18.50
2018-09-06T02:06:40.015Z,18.50
2018-09-06T02:09:10.518Z,18.50
2018-09-06T02:11:40.169Z,18.50
2018-09-06T02:14:08.777Z,18.50
2018-09-06T02:16:37.352Z,18.50
2018-09-06T02:19:05.957Z,18.50
2018-09-06T02:21:34.458Z,18.50
2018-09-06T02:24:02.952Z,18.50
2018-09-06T02:26:31.487Z,18.50
2018-09-06T02:29:00.022Z,18.50
2018-09-06T02:31:28.523Z,18.50
2018-09-06T02:33:57.042Z,18.50
2018-09-06T02:36:25.530Z,18.50
2018-09-06T02:38:54.191Z,18.50
2018-09-06T02:41:22.680Z,18.50
2018-09-06T02:43:51.199Z,18.50
2018-09-06T02:46:19.738Z,18.50
2018-09-06T02:48:48.301Z,18.40
2018-09-06T02:51:19.978Z,18.40
2018-09-06T02:53:48.561Z,18.40
2018-09-06T02:56:17.789Z,18.40
2018-09-06T02:58:46.350Z,18.40
2018-09-06T03:01:14.874Z,18.40
2018-09-06T03:03:43.434Z,18.30
2018-09-06T03:06:11.988Z,18.40
2018-09-06T03:08:40.600Z,18.40
2018-09-06T03:11:22.315Z,18.40
2018-09-06T03:13:50.999Z,18.40
2018-09-06T03:16:19.638Z,18.40
2018-09-06T03:18:48.169Z,18.40
2018-09-06T03:21:16.703Z,18.40
2018-09-06T03:23:45.197Z,18.40
2018-09-06T03:26:17.370Z,18.40
2018-09-06T03:28:47.371Z,18.40
2018-09-06T03:31:15.969Z,18.40
2018-09-06T03:33:44.963Z,18.40
2018-09-06T03:36:13.914Z,18.40
2018-09-06T03:38:42.405Z,18.40
2018-09-06T03:41:10.959Z,18.40
2018-09-06T03:43:39.460Z,18.40
2018-09-06T03:46:08.499Z,18.40
2018-09-06T03:48:37.039Z,18.40
2018-09-06T03:51:06.284Z,18.40
2018-09-06T03:53:35.390Z,18.40
2018-09-06T03:56:03.926Z,18.40
2018-09-06T03:58:32.540Z,18.30
2018-09-06T04:01:01.056Z,18.30
2018-09-06T04:03:29.602Z,18.30
2018-09-06T04:05:58.111Z,18.30
2018-09-06T04:08:26.629Z,18.20
2018-09-06T04:10:55.150Z,18.20
2018-09-06T04:13:23.715Z,18.20
2018-09-06T04:15:52.244Z,18.20
2018-09-06T04:18:20.859Z,18.20
2018-09-06T04:20:49.336Z,18.20
2018-09-06T04:23:17.917Z,18.10
2018-09-06T04:25:46.497Z,18.10
2018-09-06T04:28:15.615Z,18.10
2018-09-06T04:30:44.190Z,18.10
2018-09-06T04:33:12.726Z,18.00
2018-09-06T04:35:41.311Z,18.00
2018-09-06T04:38:09.910Z,18.00
2018-09-06T04:40:38.530Z,18.00
2018-09-06T04:43:07.061Z,17.90
2018-09-06T04:45:36.439Z,17.90
2018-09-06T04:48:05.060Z,17.80
2018-09-06T04:50:33.597Z,17.80
2018-09-06T04:53:02.172Z,17.80
2018-09-06T04:55:31.102Z,17.80
2018-09-06T04:57:59.629Z,17.90
2018-09-06T05:00:28.163Z,17.80
2018-09-06T05:02:56.715Z,17.90
2018-09-06T05:05:25.299Z,17.90
2018-09-06T05:07:53.869Z,18.00
2018-09-06T05:10:22.346Z,18.00
2018-09-06T05:12:50.831Z,18.10
2018-09-06T05:15:19.544Z,18.10
2018-09-06T05:17:48.042Z,18.10
2018-09-06T05:20:16.589Z,18.10
2018-09-06T05:22:45.094Z,18.10
2018-09-06T05:25:13.750Z,18.10
2018-09-06T05:27:42.279Z,18.10
2018-09-06T05:30:10.790Z,18.10
2018-09-06T05:32:39.327Z,18.10
2018-09-06T05:35:07.903Z,18.10
2018-09-06T05:37:36.405Z,18.10
2018-09-06T05:40:04.968Z,18.10
2018-09-06T05:42:33.459Z,18.10
2018-09-06T05:45:02.020Z,18.10
2018-09-06T05:47:30.776Z,18.10
2018-09-06T05:49:59.304Z,18.00
2018-09-06T05:52:27.841Z,18.00
2018-09-06T05:54:56.345Z,18.00
2018-09-06T05:57:24.893Z,18.00
2018-09-06T05:59:53.452Z,18.00
2018-09-06T06:02:21.949Z,18.00
2018-09-06T06:04:50.460Z,18.00
2018-09-06T06:07:19.016Z,18.10
2018-09-06T06:09:47.554Z,18.10
2018-09-06T06:12:16.080Z,18.10
2018-09-06T06:14:44.687Z,18.10
2018-09-06T06:17:13.219Z,18.20
2018-09-06T06:19:42.316Z,18.20
2018-09-06T06:22:10.884Z,18.20
2018-09-06T06:24:39.586Z,18.20
2018-09-06T06:27:08.210Z,18.20
2018-09-06T06:29:37.073Z,18.30
2018-09-06T06:32:05.876Z,18.30
2018-09-06T06:34:34.420Z,18.30
2018-09-06T06:37:03.015Z,18.40
2018-09-06T06:39:31.552Z,18.40
2018-09-06T06:42:00.310Z,18.40
2018-09-06T06:44:28.815Z,18.30
2018-09-06T06:46:57.342Z,18.30
2018-09-06T06:49:25.956Z,18.30
2018-09-06T06:51:54.580Z,18.40
2018-09-06T06:54:23.177Z,18.40
2018-09-06T06:56:52.099Z,18.40
2018-09-06T06:59:21.206Z,18.50
2018-09-06T07:01:49.890Z,18.50
2018-09-06T07:04:19.312Z,18.50
2018-09-06T07:06:47.820Z,18.50
2018-09-06T07:09:19.406Z,18.40
2018-09-06T07:11:47.929Z,18.40
2018-09-06T07:14:16.466Z,18.50
2018-09-06T07:16:44.977Z,18.50
2018-09-06T07:19:13.671Z,18.50
2018-09-06T07:21:42.164Z,18.60
2018-09-06T07:24:10.677Z,18.70
2018-09-06T07:26:39.193Z,18.80
2018-09-06T07:29:07.810Z,18.90
2018-09-06T07:31:36.375Z,19.00
2018-09-06T07:34:05.026Z,19.10
2018-09-06T07:36:33.506Z,19.20
2018-09-06T07:39:02.035Z,19.30
2018-09-06T07:41:30.588Z,19.50
2018-09-06T07:43:59.093Z,19.60
2018-09-06T07:46:28.312Z,19.70
2018-09-06T07:48:56.846Z,19.60
2018-09-06T07:51:25.594Z,19.50
2018-09-06T07:53:54.558Z,19.50
2018-09-06T07:56:23.345Z,19.50
2018-09-06T07:58:52.535Z,19.60
2018-09-06T08:01:22.014Z,19.60
2018-09-06T08:03:50.577Z,19.60
2018-09-06T08:06:19.144Z,19.70
2018-09-06T08:08:47.674Z,19.80
2018-09-06T08:11:16.213Z,19.70
2018-09-06T08:13:44.728Z,19.70
2018-09-06T08:16:13.320Z,19.60
2018-09-06T08:18:41.822Z,19.50
2018-09-06T08:21:10.435Z,19.40
2018-09-06T08:23:38.939Z,19.20
2018-09-06T08:26:07.579Z,19.10
2018-09-06T08:28:36.090Z,19.00
2018-09-06T08:31:04.858Z,18.90
2018-09-06T08:33:33.319Z,18.90
2018-09-06T08:36:01.809Z,18.90
2018-09-06T08:38:30.375Z,18.90
2018-09-06T08:40:58.895Z,18.90
2018-09-06T08:43:27.446Z,18.80
2018-09-06T08:45:56.033Z,18.80
2018-09-06T08:48:24.552Z,18.90
2018-09-06T08:50:53.099Z,18.90
2018-09-06T08:53:21.667Z,19.00
2018-09-06T08:55:50.511Z,19.10
2018-09-06T08:58:19.130Z,19.20
2018-09-06T09:01:55.495Z,19.40
2018-09-06T09:04:24.074Z,19.60
2018-09-06T09:06:52.673Z,19.80
2018-09-06T09:09:21.235Z,19.90
2018-09-06T09:11:49.785Z,19.90
2018-09-06T09:14:18.303Z,20.00
2018-09-06T09:16:46.856Z,20.00
2018-09-06T09:19:15.363Z,20.10
2018-09-06T09:21:43.988Z,20.10
2018-09-06T09:24:12.365Z,20.20
2018-09-06T09:26:40.940Z,20.30
2018-09-06T09:29:09.448Z,20.50
2018-09-06T09:31:49.363Z,20.70
2018-09-06T09:34:17.976Z,21.00
2018-09-06T09:36:46.484Z,21.30
2018-09-06T09:39:15.375Z,21.60
2018-09-06T09:41:43.920Z,21.80
2018-09-06T09:44:12.455Z,21.80
2018-09-06T09:49:08.773Z,21.90
2018-09-06T09:51:37.402Z,21.80
2018-09-06T09:54:06.065Z,21.90
2018-09-06T09:56:34.609Z,22.00
2018-09-06T09:59:03.268Z,22.10
2018-09-06T10:01:37.041Z,22.20
2018-09-06T10:04:10.949Z,22.30
2018-09-06T10:06:44.831Z,22.30
2018-09-06T10:09:15.448Z,22.40
2018-09-06T10:11:44.220Z,22.50
2018-09-06T10:14:13.238Z,22.60
2018-09-06T10:16:41.778Z,22.80
2018-09-06T10:19:10.359Z,22.90
2018-09-06T10:21:38.941Z,22.90
2018-09-06T10:24:07.498Z,22.80
2018-09-06T10:26:37.558Z,22.70
2018-09-06T10:29:06.178Z,22.60
2018-09-06T10:31:35.272Z,22.30
2018-09-06T10:34:03.910Z,22.30
2018-09-06T10:36:32.990Z,22.50
2018-09-06T10:39:01.549Z,22.90
2018-09-06T10:41:30.067Z,23.20
2018-09-06T10:43:58.545Z,23.50
2018-09-06T10:46:27.128Z,23.70
2018-09-06T10:48:55.613Z,23.50
2018-09-06T10:51:24.255Z,23.30
2018-09-06T10:53:52.767Z,22.70
2018-09-06T10:56:21.322Z,22.30
2018-09-06T10:58:49.931Z,22.00
2018-09-06T11:01:22.779Z,21.80
2018-09-06T11:03:53.005Z,21.70
2018-09-06T11:06:21.857Z,21.70
2018-09-06T11:08:50.476Z,21.80
2018-09-06T11:11:18.983Z,22.00
2018-09-06T11:13:47.521Z,22.20
2018-09-06T11:16:16.922Z,22.40
2018-09-06T11:18:45.470Z,22.60
2018-09-06T11:21:14.046Z,23.00
2018-09-06T11:23:42.491Z,23.20
2018-09-06T11:26:11.007Z,23.30
2018-09-06T11:28:39.578Z,23.30
2018-09-06T11:31:08.109Z,23.20
2018-09-06T11:33:36.733Z,23.10
2018-09-06T11:36:05.342Z,23.00
2018-09-06T11:38:33.830Z,22.90
2018-09-06T11:41:02.361Z,22.70
2018-09-06T11:43:30.861Z,22.60
2018-09-06T11:45:59.443Z,22.60
2018-09-06T11:48:30.990Z,22.60
2018-09-06T11:50:59.570Z,22.60
2018-09-06T11:53:28.051Z,22.70
2018-09-06T11:55:56.589Z,23.00
2018-09-06T11:58:25.101Z,23.30
2018-09-06T12:00:53.658Z,23.60
2018-09-06T12:03:22.173Z,23.80
2018-09-06T12:05:50.706Z,23.90
2018-09-06T12:08:19.250Z,23.90
2018-09-06T12:10:47.772Z,23.90
2018-09-06T12:13:16.315Z,23.70
2018-09-06T12:15:44.879Z,23.40
2018-09-06T12:18:13.419Z,23.20
2018-09-06T12:20:41.921Z,23.00
2018-09-06T12:23:10.461Z,22.70
2018-09-06T12:25:39.002Z,22.60
2018-09-06T12:28:09.240Z,22.60
2018-09-06T12:30:37.874Z,22.60
2018-09-06T12:33:06.503Z,22.50
2018-09-06T12:35:36.379Z,22.70
2018-09-06T12:38:06.730Z,22.80
2018-09-06T12:40:35.255Z,23.00
2018-09-06T12:43:03.773Z,23.30
2018-09-06T12:45:32.320Z,23.50
2018-09-06T12:48:02.098Z,23.60
2018-09-06T12:50:30.651Z,23.70
2018-09-06T12:52:59.283Z,23.60
2018-09-06T12:55:27.793Z,23.40
2018-09-06T12:57:56.341Z,23.00
2018-09-06T13:00:24.893Z,22.80
2018-09-06T13:02:53.463Z,22.70
2018-09-06T13:05:21.974Z,22.70
2018-09-06T13:07:50.521Z,22.60
2018-09-06T13:10:19.123Z,22.70
2018-09-06T13:12:47.606Z,22.70
2018-09-06T13:15:16.139Z,22.80
2018-09-06T13:17:46.253Z,22.60
2018-09-06T13:20:14.770Z,22.60
2018-09-06T13:22:43.263Z,22.60
2018-09-06T13:25:11.773Z,22.60
2018-09-06T13:27:40.299Z,22.60
2018-09-06T13:30:08.875Z,22.70
2018-09-06T13:32:37.817Z,22.80
2018-09-06T13:35:06.445Z,22.90
2018-09-06T13:37:35.006Z,22.70
2018-09-06T13:40:03.585Z,22.50
2018-09-06T13:42:32.089Z,22.40
2018-09-06T13:45:00.615Z,22.30
2018-09-06T13:47:31.066Z,22.10
2018-09-06T13:49:59.593Z,22.00
2018-09-06T13:52:28.179Z,21.90
2018-09-06T13:54:56.672Z,21.80
2018-09-06T13:57:25.295Z,21.70
2018-09-06T14:00:00.236Z,21.60
2018-09-06T14:02:28.735Z,21.30
2018-09-06T14:04:57.279Z,21.20
2018-09-06T14:07:25.835Z,21.20
2018-09-06T14:09:54.391Z,21.20
2018-09-06T14:12:22.902Z,21.20
2018-09-06T14:14:51.412Z,21.40
2018-09-06T14:17:19.938Z,21.60
2018-09-06T14:19:48.439Z,21.70
2018-09-06T14:22:16.966Z,21.80
2018-09-06T14:24:45.487Z,21.80
2018-09-06T14:27:14.632Z,21.80
2018-09-06T14:29:43.320Z,21.70
2018-09-06T14:32:11.885Z,21.80
2018-09-06T14:34:40.445Z,21.90
2018-09-06T14:37:08.973Z,22.20
2018-09-06T14:39:37.473Z,22.50
2018-09-06T14:42:06.176Z,22.60
2018-09-06T14:44:34.705Z,22.70
2018-09-06T14:47:03.222Z,22.90
2018-09-06T14:49:31.805Z,23.00
2018-09-06T14:52:00.409Z,23.00
2018-09-06T14:54:28.894Z,23.00
2018-09-06T14:56:57.418Z,22.90
2018-09-06T14:59:25.953Z,22.90
2018-09-06T15:01:54.523Z,23.00
2018-09-06T15:04:23.074Z,23.10
2018-09-06T15:06:51.703Z,23.10
2018-09-06T15:09:20.257Z,23.10
2018-09-06T15:11:48.805Z,23.10
2018-09-06T15:14:17.285Z,23.20
2018-09-06T15:16:45.791Z,23.30
2018-09-06T15:19:15.489Z,23.40
2018-09-06T15:21:44.038Z,23.60
2018-09-06T15:24:12.542Z,23.80
2018-09-06T15:26:41.302Z,24.10
2018-09-06T15:29:09.796Z,24.50
2018-09-06T15:31:38.320Z,24.70
2018-09-06T15:34:07.088Z,24.90
2018-09-06T15:36:35.771Z,24.80
2018-09-06T15:39:06.099Z,24.80
2018-09-06T15:41:34.752Z,24.90
2018-09-06T15:44:03.863Z,24.90
2018-09-06T15:46:32.366Z,24.50
2018-09-06T15:49:00.971Z,24.50
2018-09-06T15:51:29.511Z,24.20
2018-09-06T15:53:58.924Z,24.00
2018-09-06T15:56:27.424Z,24.00
2018-09-06T15:58:55.964Z,23.90
2018-09-06T16:01:24.556Z,23.60
2018-09-06T16:03:53.132Z,23.20
2018-09-06T16:06:21.709Z,23.10
2018-09-06T16:08:50.244Z,23.20
2018-09-06T16:11:18.894Z,23.40
2018-09-06T16:13:47.401Z,23.30
2018-09-06T16:16:15.906Z,23.50
2018-09-06T16:18:44.455Z,23.40
2018-09-06T16:21:13.014Z,23.50
2018-09-06T16:23:41.855Z,23.30
2018-09-06T16:26:10.338Z,23.10
2018-09-06T16:28:38.907Z,23.10
2018-09-06T16:31:09.121Z,22.90
2018-09-06T16:33:37.666Z,22.90
2018-09-06T16:36:07.903Z,22.90
2018-09-06T16:38:36.422Z,22.80
2018-09-06T16:41:05.024Z,22.70
2018-09-06T16:43:33.552Z,22.70
2018-09-06T16:46:02.179Z,22.50
2018-09-06T16:48:30.727Z,22.40
2018-09-06T16:50:59.247Z,22.20
2018-09-06T16:53:27.742Z,22.20
2018-09-06T16:55:56.341Z,22.10
2018-09-06T16:58:25.681Z,22.00
2018-09-06T17:00:54.696Z,21.90
2018-09-06T17:03:23.245Z,21.90
2018-09-06T17:05:51.734Z,21.80
2018-09-06T17:08:20.248Z,21.70
2018-09-06T17:10:48.764Z,21.60
2018-09-06T17:13:17.296Z,21.50
2018-09-06T17:15:45.829Z,21.50
2018-09-06T17:18:14.352Z,21.50
2018-09-06T17:20:42.819Z,21.40
2018-09-06T17:23:11.334Z,21.40
2018-09-06T17:25:39.821Z,21.30
2018-09-06T17:28:08.351Z,21.30
2018-09-06T17:30:36.850Z,21.30
2018-09-06T17:33:05.646Z,21.20
2018-09-06T17:35:34.145Z,21.20
2018-09-06T17:38:02.673Z,21.00
2018-09-06T17:40:31.205Z,20.90
2018-09-06T17:43:00.217Z,20.90
2018-09-06T17:45:28.793Z,20.80
2018-09-06T17:47:57.366Z,20.60
2018-09-06T17:50:25.956Z,20.50
2018-09-06T17:52:54.503Z,20.30
2018-09-06T17:55:23.049Z,20.20
2018-09-06T17:57:51.544Z,20.10
2018-09-06T18:00:20.434Z,20.00
2018-09-06T18:02:48.973Z,20.00
2018-09-06T18:05:17.666Z,19.80
2018-09-06T18:07:46.222Z,19.70
2018-09-06T18:10:14.852Z,19.50
2018-09-06T18:12:43.434Z,19.40
2018-09-06T18:15:11.954Z,19.20
2018-09-06T18:17:40.557Z,19.10
2018-09-06T18:20:09.073Z,19.00
2018-09-06T18:22:37.693Z,18.90
2018-09-06T18:25:06.320Z,18.80
2018-09-06T18:27:35.057Z,18.70
2018-09-06T18:30:03.796Z,18.60
2018-09-06T18:32:32.342Z,18.50
2018-09-06T18:35:00.936Z,18.50
2018-09-06T18:37:29.458Z,18.40
2018-09-06T18:39:57.954Z,18.30
2018-09-06T18:42:26.459Z,18.30
2018-09-06T18:44:55.041Z,18.30
2018-09-06T18:47:23.634Z,18.20
2018-09-06T18:49:52.228Z,18.10
2018-09-06T18:52:20.771Z,18.10
2018-09-06T18:54:49.351Z,18.10
2018-09-06T18:57:17.945Z,18.10
2018-09-06T18:59:46.922Z,18.10
2018-09-06T19:02:15.549Z,18.10
2018-09-06T19:04:43.984Z,18.10
2018-09-06T19:07:12.981Z,18.00
2018-09-06T19:09:41.490Z,18.00
2018-09-06T19:12:10.014Z,17.90
2018-09-06T19:14:38.515Z,17.90
2018-09-06T19:17:07.027Z,17.80
2018-09-06T19:19:36.397Z,17.80
2018-09-06T19:22:05.025Z,17.80
2018-09-06T19:24:33.574Z,17.70
2018-09-06T19:27:02.177Z,17.60
2018-09-06T19:29:30.687Z,17.60
2018-09-06T19:31:59.809Z,17.60
2018-09-06T19:34:28.358Z,17.50
2018-09-06T19:36:56.985Z,17.50
2018-09-06T19:39:25.789Z,17.60
2018-09-06T19:41:54.271Z,17.50
2018-09-06T19:44:22.893Z,17.50
2018-09-06T19:46:51.409Z,17.40
2018-09-06T19:49:20.188Z,17.40
2018-09-06T19:51:48.761Z,17.40
2018-09-06T19:54:17.375Z,17.40
2018-09-06T19:56:45.854Z,17.40
2018-09-06T19:59:14.385Z,17.40
2018-09-06T20:01:42.894Z,17.40
2018-09-06T20:04:11.465Z,17.40
2018-09-06T20:06:39.974Z,17.40
2018-09-06T20:09:08.762Z,17.30
2018-09-06T20:11:37.330Z,17.30
2018-09-06T20:14:05.880Z,17.20
2018-09-06T20:16:34.424Z,17.20
2018-09-06T20:19:02.960Z,17.30
2018-09-06T20:21:31.489Z,17.30
2018-09-06T20:24:00.017Z,17.30
2018-09-06T20:26:28.563Z,17.40
2018-09-06T20:28:57.353Z,17.40
2018-09-06T20:31:26.059Z,17.30
2018-09-06T20:33:54.589Z,17.30
2018-09-06T20:36:23.195Z,17.20
2018-09-06T20:38:51.727Z,17.20
2018-09-06T20:41:20.302Z,17.10
2018-09-06T20:43:48.830Z,17.10
2018-09-06T20:46:17.354Z,17.00
2018-09-06T20:48:45.934Z,16.90
2018-09-06T20:51:14.463Z,16.80
2018-09-06T20:53:43.095Z,16.80
2018-09-06T20:56:11.589Z,16.70
2018-09-06T20:58:40.067Z,16.70
2018-09-06T21:01:08.622Z,16.60
2018-09-06T21:03:37.156Z,16.50
2018-09-06T21:06:05.752Z,16.50
2018-09-06T21:08:34.364Z,16.40
2018-09-06T21:11:02.900Z,16.40
2018-09-06T21:13:31.409Z,16.40
2018-09-06T21:15:59.931Z,16.40
2018-09-06T21:18:28.441Z,16.40
2018-09-06T21:20:57.045Z,16.40
2018-09-06T21:23:25.603Z,16.30
2018-09-06T21:25:54.155Z,16.20
2018-09-06T21:28:22.661Z,16.20
2018-09-06T21:30:51.162Z,16.10
2018-09-06T21:33:19.727Z,16.10
2018-09-06T21:35:48.350Z,16.00
2018-09-06T21:38:16.854Z,16.00
2018-09-06T21:40:45.406Z,15.90
2018-09-06T21:43:13.967Z,15.90
2018-09-06T21:45:42.486Z,15.90
2018-09-06T21:48:11.021Z,15.80
2018-09-06T21:50:39.643Z,15.80
2018-09-06T21:53:08.170Z,15.90
2018-09-06T21:55:36.677Z,15.90
2018-09-06T21:58:05.273Z,16.00
2018-09-06T22:00:34.815Z,16.00
2018-09-06T22:03:08.814Z,16.00
2018-09-06T22:05:37.357Z,16.10
2018-09-06T22:08:06.015Z,16.10
2018-09-06T22:10:34.548Z,16.10
2018-09-06T22:13:03.060Z,16.20
2018-09-06T22:15:31.635Z,16.10
2018-09-06T22:18:00.167Z,16.10
2018-09-06T22:20:28.717Z,16.10
2018-09-06T22:22:57.269Z,16.00
2018-09-06T22:25:25.782Z,16.00
2018-09-06T22:27:57.246Z,16.00
2018-09-06T22:30:25.796Z,16.00
2018-09-06T22:32:54.363Z,16.00
2018-09-06T22:35:22.935Z,15.90
2018-09-06T22:37:51.456Z,15.90
2018-09-06T22:40:20.010Z,16.00
2018-09-06T22:42:48.546Z,16.10
2018-09-06T22:45:17.119Z,16.20
2018-09-06T22:47:45.630Z,16.20
2018-09-06T22:50:14.189Z,16.30
2018-09-06T22:52:42.742Z,16.30
2018-09-06T22:55:11.277Z,16.30
2018-09-06T22:57:39.866Z,16.30
2018-09-06T23:00:08.410Z,16.30
2018-09-06T23:02:42.438Z,16.20
2018-09-06T23:05:10.951Z,16.20
2018-09-06T23:07:39.564Z,16.10
2018-09-06T23:10:08.122Z,16.10
2018-09-06T23:12:36.720Z,16.00
2018-09-06T23:15:05.504Z,16.00
2018-09-06T23:17:34.193Z,16.00
2018-09-06T23:20:02.738Z,16.00
2018-09-06T23:22:31.407Z,15.90
2018-09-06T23:24:59.985Z,15.90
2018-09-06T23:27:28.529Z,15.80
2018-09-06T23:29:57.057Z,15.70
2018-09-06T23:32:25.606Z,15.80
2018-09-06T23:34:54.136Z,15.80
2018-09-06T23:37:22.706Z,15.80
2018-09-06T23:39:51.262Z,15.80
2018-09-06T23:42:19.985Z,15.80
2018-09-06T23:44:48.589Z,15.70
2018-09-06T23:47:17.177Z,15.60
2018-09-06T23:49:45.724Z,15.50
2018-09-06T23:52:14.281Z,15.40
2018-09-06T23:54:42.838Z,15.40
2018-09-06T23:57:11.426Z,15.50
2018-09-06T23:59:40.010Z,15.60
